Time;durP1;ratioP1;P1;durP2;ratioP2;P2;SDS_P1;SDS_P2;PMS_P1;PMS_P2;Temp;Humidity;BMP_temperature;BMP_pressure;BME280_temperature;BME280_humidity;BME280_pressure;Samples;Min_cycle;Max_cycle;Signal;HPM_P1;HPM_P2
2022/10/07 00:00:46;;;;;;;;;17.67;15.67;;;;;14.54;58.48;102452.06;5016586;28;45475;-44
2022/10/07 00:03:11;;;;;;;;;21.00;15.67;;;;;14.50;57.75;102454.16;5016212;28;45231;-46
2022/10/07 00:05:37;;;;;;;;;24.00;17.33;;;;;14.42;58.04;102448.59;5016753;28;45503;-45
2022/10/07 00:08:02;;;;;;;;;20.33;18.67;;;;;14.36;58.41;102452.59;5016628;28;46265;-45
2022/10/07 00:10:28;;;;;;;;;18.33;17.00;;;;;14.31;57.93;102457.50;5016773;28;45270;-45
2022/10/07 00:12:54;;;;;;;;;18.00;16.00;;;;;14.25;59.55;102451.84;5016937;28;45218;-44
2022/10/07 00:15:19;;;;;;;;;19.67;15.00;;;;;14.19;58.47;102448.69;5019337;28;45393;-46
2022/10/07 00:17:45;;;;;;;;;22.33;20.00;;;;;14.15;59.40;102452.59;5019889;28;46062;-51
2022/10/07 00:20:10;;;;;;;;;20.00;16.33;;;;;14.11;58.25;102448.47;5020058;28;45287;-46
2022/10/07 00:22:35;;;;;;;;;18.67;17.33;;;;;14.07;59.25;102441.66;5020266;28;44741;-44
2022/10/07 00:25:01;;;;;;;;;20.33;17.67;;;;;13.93;60.10;102426.78;5020430;28;45344;-46
2022/10/07 00:27:26;;;;;;;;;19.00;17.67;;;;;14.00;60.40;102439.66;5019953;28;46038;-46
2022/10/07 00:29:52;;;;;;;;;20.33;19.00;;;;;13.93;60.58;102431.28;5019888;28;45326;-45
2022/10/07 00:32:17;;;;;;;;;18.00;14.67;;;;;13.93;60.61;102431.28;5018797;28;45384;-48
2022/10/07 00:34:42;;;;;;;;;18.67;16.33;;;;;13.91;60.55;102431.41;5020135;28;45460;-47
2022/10/07 00:37:08;;;;;;;;;14.33;12.33;;;;;13.90;60.97;102439.56;5019780;28;46147;-46
2022/10/07 00:39:33;;;;;;;;;17.67;17.33;;;;;13.88;60.43;102437.00;5019699;28;45401;-47
2022/10/07 00:41:58;;;;;;;;;23.67;16.33;;;;;13.87;59.66;102432.66;5020004;28;45370;-45
2022/10/07 00:44:30;;;;;;;;;20.33;16.00;;;;;13.83;59.85;102435.72;5020042;28;45392;-45
2022/10/07 00:47:03;;;;;;;;;19.00;16.33;;;;;13.81;60.99;102437.63;5019653;28;46007;-46
2022/10/07 00:49:36;;;;;;;;;23.67;20.00;;;;;13.74;60.41;102426.63;5019539;28;45218;-45
2022/10/07 00:52:01;;;;;;;;;19.00;17.00;;;;;13.70;60.89;102425.16;5019257;28;45278;-47
2022/10/07 00:54:27;;;;;;;;;27.33;22.00;;;;;13.63;60.46;102419.47;5019971;28;45441;-46
2022/10/07 00:56:52;;;;;;;;;26.00;17.67;;;;;13.64;60.33;102421.16;5019527;28;46865;-45
2022/10/07 00:59:19;;;;;;;;;25.67;18.00;;;;;13.60;61.95;102421.53;5019706;28;45260;-46
2022/10/07 01:01:45;;;;;;;;;36.33;19.33;;;;;13.57;62.27;102414.63;5019436;28;45475;-44
2022/10/07 01:04:12;;;;;;;;;22.33;19.67;;;;;13.58;61.40;102421.66;5019707;28;45665;-47
2022/10/07 01:06:38;;;;;;;;;20.67;15.33;;;;;13.52;61.53;102408.78;5019660;28;45389;-44
2022/10/07 01:09:06;;;;;;;;;23.33;17.67;;;;;13.52;62.19;102410.63;5019460;28;45423;-47
2022/10/07 01:11:52;;;;;;;;;24.33;17.00;;;;;13.47;61.82;102414.50;5019446;28;45294;-47
2022/10/07 01:14:50;;;;;;;;;20.00;16.67;;;;;13.43;61.17;102407.72;5019616;28;45326;-47
2022/10/07 01:17:21;;;;;;;;;23.33;19.67;;;;;13.38;60.82;102398.38;5019115;28;46388;-49
2022/10/07 01:20:29;;;;;;;;;26.33;22.33;;;;;13.32;61.50;102393.53;5019490;28;45257;-47
2022/10/07 01:23:31;;;;;;;;;18.00;18.00;;;;;13.26;61.26;102392.19;5019412;28;45392;-47
2022/10/07 01:26:35;;;;;;;;;20.33;16.33;;;;;13.21;62.79;102391.69;5018276;28;45171;-47
2022/10/07 01:29:14;;;;;;;;;17.67;16.67;;;;;13.18;62.83;102387.44;5019109;28;46115;-46
2022/10/07 01:31:52;;;;;;;;;21.67;18.33;;;;;13.14;62.15;102385.13;5019483;28;45268;-49
2022/10/07 01:34:19;;;;;;;;;27.33;22.33;;;;;13.16;62.49;102384.03;5019541;28;45266;-46
2022/10/07 01:36:49;;;;;;;;;18.67;15.00;;;;;13.14;61.70;102388.66;5019949;28;45458;-47
2022/10/07 01:39:18;;;;;;;;;21.33;18.33;;;;;13.11;62.53;102388.06;5018811;28;45563;-47
2022/10/07 01:41:43;;;;;;;;;22.67;13.00;;;;;13.07;62.95;102387.47;5018881;28;45389;-46
2022/10/07 01:44:11;;;;;;;;;25.33;19.33;;;;;13.05;62.85;102370.69;5018911;28;45356;-46
2022/10/07 01:46:36;;;;;;;;;26.00;20.33;;;;;13.05;62.70;102370.69;5019050;28;45540;-44
2022/10/07 01:49:04;;;;;;;;;23.00;21.00;;;;;13.05;63.12;102375.19;5018392;28;45341;-47
2022/10/07 01:51:34;;;;;;;;;23.67;18.33;;;;;13.05;63.34;102364.50;5018636;28;45180;-47
2022/10/07 01:54:18;;;;;;;;;28.33;21.33;;;;;13.02;62.99;102349.59;5018625;28;45302;-46
2022/10/07 01:57:17;;;;;;;;;28.33;22.00;;;;;13.05;62.50;102357.34;5018867;28;45393;-45
2022/10/07 01:59:54;;;;;;;;;26.67;21.67;;;;;13.04;63.63;102350.31;5018415;28;46119;-45
2022/10/07 02:02:58;;;;;;;;;21.67;20.67;;;;;13.08;62.81;102349.06;5018441;28;45297;-45
2022/10/07 02:05:42;;;;;;;;;26.00;23.33;;;;;13.06;62.92;102345.69;4957384;28;45356;-44
2022/10/07 02:08:29;;;;;;;;;26.33;22.33;;;;;13.01;62.63;102331.84;4957518;28;45345;-45
2022/10/07 02:11:12;;;;;;;;;29.00;23.00;;;;;13.01;63.53;102337.19;4956985;28;46986;-47
2022/10/07 02:13:37;;;;;;;;;25.00;22.00;;;;;13.06;63.61;102339.47;4957146;28;45388;-45
2022/10/07 02:16:16;;;;;;;;;21.33;19.67;;;;;13.02;63.32;102330.00;4957173;28;45357;-47
2022/10/07 02:18:47;;;;;;;;;26.00;20.33;;;;;13.00;63.84;102327.47;4957327;28;45457;-46
2022/10/07 02:21:13;;;;;;;;;27.00;24.00;;;;;12.94;63.91;102320.81;4956872;28;47225;-45
2022/10/07 02:23:43;;;;;;;;;24.33;20.67;;;;;12.98;63.97;102326.75;4956865;28;45497;-45
2022/10/07 02:26:12;;;;;;;;;26.33;26.00;;;;;12.94;63.67;102323.50;4957171;28;45447;-45
2022/10/07 02:28:41;;;;;;;;;30.00;24.00;;;;;12.90;63.25;102322.03;4957013;28;45461;-47
2022/10/07 02:31:11;;;;;;;;;25.00;23.67;;;;;12.91;63.67;102320.22;4956469;28;46399;-45
2022/10/07 02:33:38;;;;;;;;;25.00;19.67;;;;;12.87;63.38;102308.91;4956612;28;45359;-46
2022/10/07 02:36:21;;;;;;;;;30.00;23.00;;;;;12.84;63.70;102302.97;4956940;28;45417;-45
2022/10/07 02:38:47;;;;;;;;;33.00;23.33;;;;;12.79;64.23;102305.16;4956790;28;45423;-44
2022/10/07 02:41:32;;;;;;;;;26.00;20.00;;;;;12.75;64.46;102296.53;4971819;28;47138;-44
2022/10/07 02:44:25;;;;;;;;;23.33;19.33;;;;;12.70;64.63;102296.06;5017898;28;45391;-49
2022/10/07 02:47:15;;;;;;;;;31.00;24.33;;;;;12.68;64.80;102293.53;4956601;28;45454;-47
2022/10/07 02:49:44;;;;;;;;;25.00;18.00;;;;;12.70;64.65;102296.06;4956425;28;45391;-47
2022/10/07 02:52:18;;;;;;;;;24.33;18.00;;;;;12.69;63.37;102297.91;4956288;28;46384;-45
2022/10/07 02:54:51;;;;;;;;;22.33;17.33;;;;;12.66;64.35;102291.94;4955867;28;45434;-46
2022/10/07 02:57:19;;;;;;;;;22.00;17.33;;;;;12.64;63.65;102293.88;4956648;28;45528;-48
2022/10/07 02:59:47;;;;;;;;;25.33;17.33;;;;;12.60;63.96;102287.97;4956780;28;45363;-46
2022/10/07 03:02:20;;;;;;;;;20.33;15.33;;;;;12.57;64.43;102284.69;4956398;28;45283;-47
2022/10/07 03:04:47;;;;;;;;;19.33;18.33;;;;;12.54;64.88;102285.75;4956430;28;45576;-48
2022/10/07 03:07:12;;;;;;;;;24.00;17.67;;;;;12.51;64.03;102277.13;4956443;28;45501;-46
2022/10/07 03:09:39;;;;;;;;;18.00;16.33;;;;;12.50;63.61;102273.63;4956864;28;45670;-46
2022/10/07 03:12:04;;;;;;;;;23.00;17.00;;;;;12.48;64.31;102278.25;4956300;28;45280;-47
2022/10/07 03:14:30;;;;;;;;;17.67;16.00;;;;;12.46;64.73;102272.16;4956483;28;45360;-47
2022/10/07 03:16:55;;;;;;;;;14.00;13.33;;;;;12.43;64.81;102275.06;4956291;28;45417;-47
2022/10/07 03:19:20;;;;;;;;;22.00;18.33;;;;;12.42;64.07;102270.72;4956395;28;45300;-46
2022/10/07 03:21:46;;;;;;;;;23.00;19.67;;;;;12.39;64.23;102265.63;4956187;28;47195;-48
2022/10/07 03:24:11;;;;;;;;;26.33;19.67;;;;;12.37;64.84;102270.22;4994827;28;45621;-44
2022/10/07 03:26:37;;;;;;;;;24.33;16.00;;;;;12.36;65.36;102268.53;5016034;28;45791;-45
2022/10/07 03:29:03;;;;;;;;;19.33;14.00;;;;;12.33;65.27;102261.63;5017472;28;45421;-44
2022/10/07 03:31:29;;;;;;;;;19.67;16.67;;;;;12.31;64.92;102274.25;5017081;28;46173;-46
2022/10/07 03:33:56;;;;;;;;;23.00;16.33;;;;;12.31;65.46;102262.72;5016982;28;45362;-45
2022/10/07 03:36:22;;;;;;;;;20.00;18.00;;;;;12.27;64.76;102258.59;5017061;28;45199;-49
2022/10/07 03:38:48;;;;;;;;;23.33;14.67;;;;;12.26;65.31;102256.88;5017318;28;45416;-44
2022/10/07 03:41:15;;;;;;;;;28.00;16.33;;;;;12.23;65.03;102266.00;5016751;28;46482;-44
2022/10/07 03:43:40;;;;;;;;;18.33;15.00;;;;;12.19;64.27;102267.19;5016917;28;45339;-45
2022/10/07 03:46:05;;;;;;;;;23.67;17.00;;;;;12.15;65.19;102261.25;5017026;28;45288;-44
2022/10/07 03:48:31;;;;;;;;;18.33;17.00;;;;;12.11;65.53;102259.78;5016665;28;45325;-45
2022/10/07 03:50:57;;;;;;;;;16.00;14.00;;;;;12.05;65.26;102256.75;5016521;28;45908;-45
2022/10/07 03:53:25;;;;;;;;;22.67;20.00;;;;;12.01;65.53;102261.50;5016674;28;45269;-48
2022/10/07 03:55:50;;;;;;;;;24.67;19.00;;;;;11.95;66.01;102259.28;5016916;28;45399;-46
2022/10/07 03:58:16;;;;;;;;;23.00;17.67;;;;;11.99;65.33;102258.91;4999202;28;45473;-45
2022/10/07 04:00:41;;;;;;;;;24.00;16.00;;;;;11.98;66.40;102261.72;5016700;28;46076;-46
2022/10/07 04:03:07;;;;;;;;;23.67;16.67;;;;;11.98;66.01;102262.56;5016651;28;45294;-45
2022/10/07 04:05:34;;;;;;;;;20.00;16.00;;;;;11.91;65.74;102245.31;5016974;28;45533;-47
2022/10/07 04:08:00;;;;;;;;;20.33;13.33;;;;;11.95;66.50;102251.28;5016988;28;45332;-47
2022/10/07 04:10:25;;;;;;;;;26.67;18.00;;;;;11.95;66.09;102257.47;5016591;28;46098;-48
2022/10/07 04:12:51;;;;;;;;;26.00;20.00;;;;;11.92;66.04;102256.84;5016505;28;45349;-45
2022/10/07 04:15:17;;;;;;;;;23.67;15.00;;;;;11.90;66.12;102254.31;5016487;28;45198;-47
2022/10/07 04:17:45;;;;;;;;;19.33;16.67;;;;;11.86;66.71;102252.00;5016694;28;45544;-45
2022/10/07 04:20:12;;;;;;;;;20.33;19.33;;;;;11.84;66.32;102248.56;5016309;28;45455;-46
2022/10/07 04:22:37;;;;;;;;;25.67;18.00;;;;;11.81;67.16;102248.81;5016608;28;45245;-47
2022/10/07 04:27:55;;;;;;;;;21.00;16.00;;;;;11.73;67.33;102247.56;5016813;28;45408;-47
2022/10/07 04:30:22;;;;;;;;;18.00;14.00;;;;;11.79;67.41;102243.56;5016393;28;45620;-47
2022/10/07 04:32:49;;;;;;;;;18.33;16.00;;;;;11.79;66.98;102246.22;5016249;28;45408;-47
2022/10/07 04:35:19;;;;;;;;;28.00;16.00;;;;;11.78;67.33;102233.03;5016722;28;45440;-46
2022/10/07 04:37:47;;;;;;;;;17.67;16.33;;;;;11.64;66.96;102213.63;5016582;28;45329;-48
2022/10/07 04:40:13;;;;;;;;;20.33;15.00;;;;;11.80;66.16;102244.41;5016181;28;47482;-46
2022/10/07 04:45:22;;;;;;;;;17.00;17.00;;;;;11.81;66.74;102235.47;5016541;28;45285;-46
2022/10/07 04:47:47;;;;;;;;;21.00;16.67;;;;;11.84;66.91;102237.91;5016569;28;45428;-45
2022/10/07 04:50:12;;;;;;;;;18.33;16.33;;;;;11.85;66.90;102239.63;5016067;28;45672;-54
2022/10/07 04:52:45;;;;;;;;;23.67;16.67;;;;;11.82;66.69;102227.34;4998225;28;45444;-45
2022/10/07 04:55:13;;;;;;;;;21.67;17.00;;;;;11.84;66.41;102227.25;5016743;28;45422;-45
2022/10/07 04:57:39;;;;;;;;;31.67;21.33;;;;;11.80;67.12;102223.97;5016396;28;45474;-45
2022/10/07 05:00:07;;;;;;;;;22.00;19.33;;;;;11.81;67.08;102225.66;5016629;28;46164;-45
2022/10/07 05:02:32;;;;;;;;;20.33;17.67;;;;;11.79;67.13;102224.91;5019782;28;45325;-44
2022/10/07 05:04:58;;;;;;;;;26.00;17.67;;;;;11.79;67.79;102224.06;5019373;28;45739;-45
2022/10/07 05:07:24;;;;;;;;;24.33;18.00;;;;;11.78;66.40;102219.69;5001980;28;45429;-46
2022/10/07 05:09:50;;;;;;;;;26.33;21.00;;;;;11.79;66.73;102222.25;5018131;28;47459;-47
2022/10/07 05:12:18;;;;;;;;;23.00;17.67;;;;;11.77;67.33;102226.00;5019334;28;45432;-48
2022/10/07 05:14:44;;;;;;;;;24.00;18.67;;;;;11.74;67.44;102221.75;5019790;28;45226;-48
2022/10/07 05:17:10;;;;;;;;;19.00;16.00;;;;;11.73;66.22;102228.91;5019795;28;45520;-46
2022/10/07 05:19:35;;;;;;;;;18.33;14.33;;;;;11.71;66.72;102227.31;5019363;28;46195;-47
2022/10/07 05:22:01;;;;;;;;;18.00;14.67;;;;;11.67;65.79;102218.72;5001249;28;45248;-46
2022/10/07 05:24:27;;;;;;;;;24.00;19.67;;;;;11.67;66.50;102221.41;5018613;28;45365;-45
2022/10/07 05:26:53;;;;;;;;;24.00;16.67;;;;;11.66;67.37;102219.66;5019450;28;45266;-46
2022/10/07 05:29:19;;;;;;;;;26.33;16.33;;;;;11.64;66.82;102220.78;5018948;28;46322;-46
2022/10/07 05:31:45;;;;;;;;;22.67;18.00;;;;;11.61;66.80;102226.34;5018911;28;45436;-46
2022/10/07 05:34:10;;;;;;;;;18.33;14.00;;;;;11.62;66.86;102220.88;5001024;28;45528;-47
2022/10/07 05:36:35;;;;;;;;;23.00;17.00;;;;;11.59;66.16;102217.63;5019458;28;45345;-44
2022/10/07 05:39:00;;;;;;;;;20.33;19.00;;;;;11.58;67.49;102224.72;5018911;28;45368;-46
2022/10/07 05:41:29;;;;;;;;;18.00;15.00;;;;;11.52;67.82;102214.56;5019096;28;45452;-48
2022/10/07 05:43:54;;;;;;;;;21.33;19.33;;;;;11.43;66.81;102202.78;5019205;28;45331;-44
2022/10/07 05:46:20;;;;;;;;;22.00;18.33;;;;;11.52;67.31;102216.38;5019025;28;45283;-46
2022/10/07 05:48:47;;;;;;;;;23.67;18.67;;;;;11.37;67.91;102205.06;5018657;28;46956;-45
2022/10/07 05:51:13;;;;;;;;;23.00;18.33;;;;;11.37;67.95;102207.72;5018727;28;45325;-47
2022/10/07 05:53:40;;;;;;;;;29.33;19.00;;;;;11.38;67.80;102204.97;5018546;28;45388;-44
2022/10/07 05:56:07;;;;;;;;;16.67;12.67;;;;;11.44;67.70;102222.28;5018885;28;45354;-46
2022/10/07 05:58:36;;;;;;;;;24.00;19.00;;;;;11.41;67.28;102217.19;5018079;28;45197;-46
2022/10/07 06:01:05;;;;;;;;;23.33;15.67;;;;;11.40;67.04;102216.34;5018491;28;45537;-48
2022/10/07 06:03:32;;;;;;;;;23.00;19.00;;;;;11.38;67.82;102212.09;5018711;28;45582;-46
2022/10/07 06:06:01;;;;;;;;;24.67;18.00;;;;;11.38;67.52;102217.44;5018881;28;45259;-46
2022/10/07 06:08:27;;;;;;;;;16.67;16.00;;;;;11.38;67.44;102226.28;5018523;28;45964;-48
2022/10/07 06:13:37;;;;;;;;;24.33;17.67;;;;;11.41;67.59;102225.16;5018084;28;45224;-47
2022/10/07 06:16:08;;;;;;;;;20.00;15.67;;;;;11.41;67.78;102214.50;5018685;28;45489;-44
2022/10/07 06:18:37;;;;;;;;;21.67;16.00;;;;;11.43;68.03;102217.94;5018345;28;46154;-46
2022/10/07 06:21:04;;;;;;;;;23.33;20.67;;;;;11.45;67.52;102213.31;5018227;28;45300;-46
2022/10/07 06:23:31;;;;;;;;;21.67;16.00;;;;;11.44;67.48;102219.63;5018479;28;45326;-45
2022/10/07 06:25:58;;;;;;;;;16.33;16.33;;;;;11.43;67.62;102217.94;5018543;28;45434;-45
2022/10/07 06:28:24;;;;;;;;;22.33;18.67;;;;;11.37;67.72;102202.38;5018086;28;45367;-46
2022/10/07 06:30:50;;;;;;;;;21.00;20.00;;;;;11.46;67.89;102218.53;5000253;28;45369;-46
2022/10/07 06:33:16;;;;;;;;;21.33;18.00;;;;;11.47;67.59;102208.72;5018349;28;45279;-45
2022/10/07 06:35:42;;;;;;;;;20.33;19.00;;;;;11.43;67.55;102212.59;5018289;28;45252;-45
2022/10/07 06:38:07;;;;;;;;;17.00;17.00;;;;;11.47;67.56;102209.59;5017799;28;46917;-48
2022/10/07 06:40:32;;;;;;;;;25.33;17.67;;;;;11.52;67.18;102217.22;5018114;28;45313;-45
2022/10/07 06:42:58;;;;;;;;;20.33;18.00;;;;;11.55;67.59;102214.34;5017625;28;45342;-46
2022/10/07 06:45:23;;;;;;;;;21.33;19.67;;;;;11.59;67.66;102210.47;5018612;28;45412;-46
2022/10/07 06:47:48;;;;;;;;;26.67;19.00;;;;;11.66;67.30;102213.50;5017901;28;47227;-47
2022/10/07 06:50:14;;;;;;;;;20.67;17.00;;;;;11.59;67.75;102201.63;5017693;28;45527;-47
2022/10/07 06:52:40;;;;;;;;;23.00;19.67;;;;;11.70;66.77;102209.63;5017403;28;45344;-48
2022/10/07 06:55:06;;;;;;;;;22.33;18.00;;;;;11.78;67.32;102211.72;5018009;28;45336;-46
2022/10/07 06:57:32;;;;;;;;;23.00;19.00;;;;;11.79;67.05;102219.56;5017725;28;46022;-46
2022/10/07 06:59:59;;;;;;;;;22.33;16.00;;;;;11.74;67.42;102197.75;5017597;28;45221;-46
2022/10/07 07:02:25;;;;;;;;;16.33;14.00;;;;;11.76;66.96;102203.84;5017828;28;45316;-45
2022/10/07 07:04:50;;;;;;;;;17.67;15.33;;;;;11.90;67.91;102221.47;5017575;28;45424;-46
2022/10/07 07:07:16;;;;;;;;;24.00;16.00;;;;;11.92;66.48;102209.69;5017511;28;46098;-46
2022/10/07 07:09:41;;;;;;;;;24.33;17.67;;;;;11.96;67.11;102216.47;5017584;28;45254;-46
2022/10/07 07:12:06;;;;;;;;;26.67;19.00;;;;;12.01;67.05;102213.47;5017578;28;45364;-46
2022/10/07 07:14:34;;;;;;;;;19.67;18.33;;;;;12.05;66.93;102214.06;5017269;28;45491;-46
2022/10/07 07:16:59;;;;;;;;;20.33;15.00;;;;;12.10;66.83;102218.09;5017336;28;46125;-45
2022/10/07 07:19:25;;;;;;;;;20.00;17.33;;;;;12.15;66.46;102215.91;5017157;28;45228;-45
2022/10/07 07:21:50;;;;;;;;;26.67;18.33;;;;;12.19;67.16;102212.03;5017538;28;45505;-45
2022/10/07 07:24:16;;;;;;;;;20.00;16.33;;;;;12.29;66.84;102211.28;5016553;28;45397;-46
2022/10/07 07:26:41;;;;;;;;;26.00;20.67;;;;;12.34;66.42;102209.09;5017387;28;46078;-45
2022/10/07 07:29:07;;;;;;;;;19.67;16.00;;;;;12.38;66.42;102198.03;5017131;28;45388;-43
2022/10/07 07:31:36;;;;;;;;;23.33;17.00;;;;;12.51;66.64;102200.56;5017303;28;45300;-45
2022/10/07 07:34:06;;;;;;;;;27.67;18.67;;;;;12.59;65.88;102207.97;5017830;28;45458;-45
2022/10/07 07:36:35;;;;;;;;;23.67;19.33;;;;;12.65;65.64;102197.66;5016972;28;46536;-46
2022/10/07 07:39:04;;;;;;;;;23.33;18.00;;;;;12.65;65.91;102189.66;5016985;28;45293;-45
2022/10/07 07:41:33;;;;;;;;;16.33;13.00;;;;;12.81;65.14;102207.06;5017303;28;45396;-46
2022/10/07 07:44:00;;;;;;;;;22.00;17.67;;;;;12.87;65.39;102195.91;5017267;28;45484;-47
2022/10/07 07:46:31;;;;;;;;;19.33;13.33;;;;;12.95;65.00;102198.78;5016937;28;45299;-46
2022/10/07 07:48:57;;;;;;;;;19.00;15.67;;;;;13.02;64.92;102194.66;5017053;28;45443;-49
2022/10/07 07:51:23;;;;;;;;;21.67;15.00;;;;;13.08;64.89;102195.94;5016788;28;45408;-46
2022/10/07 07:53:51;;;;;;;;;23.67;19.00;;;;;13.13;64.90;102193.75;5017085;28;45377;-45
2022/10/07 07:56:18;;;;;;;;;22.00;18.00;;;;;13.19;64.66;102190.56;5016733;28;46496;-48
2022/10/07 07:58:44;;;;;;;;;19.33;14.00;;;;;13.28;64.24;102183.63;5015042;28;45492;-45
2022/10/07 08:01:12;;;;;;;;;22.33;17.00;;;;;13.44;63.78;102184.00;5036375;28;45809;-47
2022/10/07 08:03:40;;;;;;;;;21.33;15.67;;;;;13.58;63.62;102180.19;5036619;28;45589;-47
2022/10/07 08:06:07;;;;;;;;;23.67;18.33;;;;;13.71;63.45;102178.16;5036268;28;46091;-45
2022/10/07 08:08:33;;;;;;;;;18.33;15.00;;;;;13.86;62.59;102181.31;5036587;28;45350;-49
2022/10/07 08:11:09;;;;;;;;;24.33;17.33;;;;;13.93;62.49;102159.25;5031054;28;45433;-47
2022/10/07 08:13:35;;;;;;;;;18.67;13.67;;;;;14.30;61.53;102189.97;5021361;28;45473;-46
2022/10/07 08:16:03;;;;;;;;;15.67;11.67;;;;;14.53;60.70;102185.25;5032926;28;46127;-49
2022/10/07 08:18:30;;;;;;;;;13.67;7.00;;;;;15.27;59.19;102188.28;5029203;28;45494;-45
2022/10/07 08:21:00;;;;;;;;;17.00;10.33;;;;;17.37;54.40;102179.50;5034068;28;45195;-45
2022/10/07 08:23:28;;;;;;;;;15.33;13.00;;;;;19.11;50.28;102176.41;5034057;28;45704;-45
2022/10/07 08:25:57;;;;;;;;;12.33;12.33;;;;;20.52;46.72;102171.41;5033524;28;46288;-47
2022/10/07 08:28:23;;;;;;;;;19.67;13.00;;;;;21.51;46.30;102166.09;5033555;28;45428;-46
2022/10/07 08:30:50;;;;;;;;;14.33;14.00;;;;;22.84;41.70;102163.28;5033606;28;45459;-47
2022/10/07 08:33:16;;;;;;;;;15.00;10.00;;;;;24.07;39.75;102165.50;5027867;28;45483;-48
2022/10/07 08:35:42;;;;;;;;;25.67;12.00;;;;;24.97;36.98;102151.78;5034878;28;46245;-47
2022/10/07 08:38:08;;;;;;;;;15.50;12.50;;;;;25.30;36.17;102146.38;5037325;28;45424;-48
2022/10/07 08:40:35;;;;;;;;;13.50;12.75;;;;;25.04;36.23;102142.56;5032386;28;45526;-46
2022/10/07 08:43:02;;;;;;;;;13.00;11.50;;;;;24.67;37.10;102135.00;5036005;28;46424;-49
2022/10/07 08:45:32;;;;;;;;;11.75;9.00;;;;;24.41;39.11;102135.75;5036845;28;46976;-47
2022/10/07 08:48:08;;;;;;;;;13.25;13.00;;;;;24.38;37.17;102139.72;5035644;28;45762;-46
2022/10/07 08:50:42;;;;;;;;;16.50;11.25;;;;;24.32;39.97;102138.63;5031799;28;45937;-45
2022/10/07 08:53:16;;;;;;;;;17.25;13.75;;;;;24.39;41.01;102139.50;5030049;28;45290;-47
2022/10/07 08:55:48;;;;;;;;;13.00;11.50;;;;;24.67;42.03;102135.00;5031472;28;46480;-48
2022/10/07 08:58:42;;;;;;;;;17.40;14.20;;;;;25.09;39.18;102126.47;5029028;28;45468;-47
2022/10/07 09:01:35;;;;;;;;;16.60;12.80;;;;;26.30;36.33;102131.44;5036104;28;45616;-46
2022/10/07 09:04:15;;;;;;;;;16.25;11.75;;;;;27.63;35.16;102135.06;5037019;28;45519;-47
2022/10/07 09:06:56;;;;;;;;;18.60;12.20;;;;;28.55;31.66;102124.91;5036226;28;45987;-48
2022/10/07 09:09:27;;;;;;;;;14.00;11.80;;;;;29.30;29.56;102119.72;5039272;28;45417;-45
2022/10/07 09:11:56;;;;;;;;;12.80;10.60;;;;;29.97;28.75;102113.81;5039272;28;45494;-45
2022/10/07 09:14:27;;;;;;;;;12.00;8.60;;;;;30.54;28.46;102108.31;5039599;28;45194;-46
2022/10/07 09:16:57;;;;;;;;;13.60;11.40;;;;;31.00;28.70;102108.28;5037437;28;46090;-45
2022/10/07 09:19:38;;;;;;;;;17.20;13.20;;;;;31.17;26.85;102097.28;5038540;28;45495;-45
2022/10/07 09:22:20;;;;;;;;;10.40;8.60;;;;;31.48;28.90;102104.09;5038922;28;45405;-46
2022/10/07 09:24:56;;;;;;;;;15.00;11.00;;;;;31.79;26.46;102086.91;5038806;28;45336;-47
2022/10/07 09:27:23;;;;;;;;;14.00;10.60;;;;;32.20;24.89;102083.81;5038841;28;46340;-46
2022/10/07 09:29:50;;;;;;;;;13.80;9.60;;;;;32.43;25.23;102086.28;5039056;28;45228;-46
2022/10/07 09:32:17;;;;;;;;;12.60;9.80;;;;;32.87;26.20;102083.34;5038437;28;45472;-49
2022/10/07 09:34:44;;;;;;;;;9.40;7.80;;;;;33.15;24.38;102081.34;5038512;28;45471;-46
2022/10/07 09:37:20;;;;;;;;;17.20;11.00;;;;;33.51;26.77;102076.91;5038727;28;45516;-45
2022/10/07 09:39:51;;;;;;;;;12.80;11.20;;;;;33.70;26.19;102071.72;5038854;28;45342;-47
2022/10/07 09:42:25;;;;;;;;;12.40;9.00;;;;;34.00;23.62;102066.34;5038926;28;45435;-47
2022/10/07 09:44:53;;;;;;;;;15.20;13.20;;;;;34.21;23.53;102061.69;5039015;28;45327;-43
2022/10/07 09:47:22;;;;;;;;;11.60;8.80;;;;;34.18;24.01;102056.72;5037508;28;46407;-46
2022/10/07 09:49:51;;;;;;;;;11.80;9.20;;;;;34.30;22.24;102063.91;5038436;28;45436;-49
2022/10/07 09:52:22;;;;;;;;;11.80;9.20;;;;;34.45;22.92;102061.97;5038484;28;45497;-45
2022/10/07 09:54:50;;;;;;;;;17.00;13.00;;;;;34.60;24.31;102044.63;5038890;28;45316;-49
2022/10/07 09:57:34;;;;;;;;;15.20;12.60;;;;;34.55;22.88;102052.06;5038546;28;47173;-47
2022/10/07 10:00:24;;;;;;;;;15.00;8.80;;;;;34.55;22.30;102041.84;5038690;28;45348;-47
2022/10/07 10:03:09;;;;;;;;;11.60;9.80;;;;;34.64;22.59;102036.59;4976725;28;45461;-47
2022/10/07 10:05:38;;;;;;;;;12.20;8.20;;;;;34.69;21.98;102039.38;4977033;28;45434;-47
2022/10/07 10:08:28;;;;;;;;;16.20;10.40;;;;;34.36;21.96;102036.03;4976657;28;46587;-47
2022/10/07 10:10:56;;;;;;;;;13.40;10.80;;;;;33.84;22.76;102025.97;4976779;28;45466;-46
2022/10/07 10:13:32;;;;;;;;;14.60;11.60;;;;;33.20;23.33;102023.47;4977119;28;45366;-46
2022/10/07 10:15:58;;;;;;;;;10.80;10.20;;;;;32.85;23.45;102016.63;4977080;28;45454;-45
2022/10/07 10:18:26;;;;;;;;;13.00;10.80;;;;;32.57;24.48;102015.03;4976874;28;46014;-46
2022/10/07 10:20:52;;;;;;;;;8.40;7.20;;;;;32.27;24.00;102015.59;4976730;28;45460;-47
2022/10/07 10:23:39;;;;;;;;;4.20;4.00;;;;;31.91;25.17;102007.00;4976720;28;45317;-46
2022/10/07 10:26:25;;;;;;;;;6.00;4.00;;;;;31.73;24.20;102007.28;4976906;28;45368;-46
2022/10/07 10:29:01;;;;;;;;;4.60;4.00;;;;;31.75;24.73;102002.38;4960272;28;45471;-44
2022/10/07 10:31:45;;;;;;;;;2.80;2.80;;;;;32.07;24.93;101998.88;4976699;28;45434;-46
2022/10/07 10:34:24;;;;;;;;;7.60;2.00;;;;;32.05;23.67;101999.13;4976700;28;45380;-48
2022/10/07 10:37:09;;;;;;;;;5.80;3.80;;;;;32.27;24.93;101999.88;4976800;28;45602;-48
2022/10/07 10:39:47;;;;;;;;;3.00;2.80;;;;;32.39;23.69;101983.22;5001110;28;45230;-44
2022/10/07 10:42:19;;;;;;;;;6.40;4.20;;;;;32.60;22.96;101977.88;5037979;28;45221;-45
2022/10/07 10:44:47;;;;;;;;;4.00;2.80;;;;;33.01;23.64;101979.81;5019908;28;45364;-47
2022/10/07 10:47:27;;;;;;;;;3.40;2.00;;;;;33.60;21.65;101975.13;5038508;28;45374;-47
2022/10/07 10:50:18;;;;;;;;;6.80;4.60;;;;;35.08;21.64;101984.28;5037947;28;45319;-46
2022/10/07 10:53:08;;;;;;;;;2.20;2.20;;;;;37.60;18.68;101971.66;5037511;28;45379;-47
2022/10/07 10:56:04;;;;;;;;;5.20;2.60;;;;;39.71;18.69;101980.59;5038007;28;45435;-45
2022/10/07 10:58:52;;;;;;;;;2.80;1.40;;;;;40.80;15.76;101970.00;5037963;28;45305;-50
2022/10/07 11:01:35;;;;;;;;;1.00;1.00;;;;;41.88;14.81;101971.22;5037560;28;46340;-49
2022/10/07 11:04:22;;;;;;;;;2.00;2.00;;;;;42.24;13.70;101962.47;5037705;28;45270;-47
2022/10/07 11:06:56;;;;;;;;;6.00;5.40;;;;;42.95;14.38;101959.06;5037877;28;45915;-48
2022/10/07 11:09:48;;;;;;;;;6.80;4.80;;;;;43.68;14.16;101955.94;5037953;28;45360;-46
2022/10/07 11:12:22;;;;;;;;;8.40;3.60;;;;;44.10;12.86;101957.88;5037548;28;45413;-47
2022/10/07 11:14:57;;;;;;;;;7.00;4.20;;;;;44.45;13.34;101944.28;5037576;28;45451;-47
2022/10/07 11:17:29;;;;;;;;;6.00;3.60;;;;;44.27;14.19;101943.69;5037650;28;45458;-46
2022/10/07 11:20:04;;;;;;;;;9.80;5.80;;;;;43.66;14.39;101944.28;5037964;28;45322;-46
2022/10/07 11:22:46;;;;;;;;;12.20;8.80;;;;;43.93;13.42;101937.28;5037282;28;46053;-47
2022/10/07 11:25:46;;;;;;;;;7.40;4.00;;;;;44.24;12.46;101922.75;5037221;28;45357;-47
2022/10/07 11:28:29;;;;;;;;;6.00;3.00;;;;;44.15;12.86;101924.00;5036422;28;45417;-45
2022/10/07 11:30:54;;;;;;;;;4.60;4.60;;;;;44.04;12.25;101918.84;5037680;28;45509;-49
2022/10/07 11:33:27;;;;;;;;;4.25;3.75;;;;;44.22;12.67;101915.84;5037139;28;46230;-50
2022/10/07 11:36:03;;;;;;;;;4.00;2.60;;;;;43.89;12.41;101908.28;5037281;28;45545;-47